Time;durP1;ratioP1;P1;durP2;ratioP2;P2;SDS_P1;SDS_P2;PMS_P1;PMS_P2;Temp;Humidity;BMP_temperature;BMP_pressure;BME280_temperature;BME280_humidity;BME280_pressure;Samples;Min_cycle;Max_cycle;Signal;HPM_P1;HPM_P2
2023/05/05 00:02:01;;;;;;;2.63;1.80;;;20.90;58.30;;;;;;5033534;28;20217;-79
2023/05/05 00:04:27;;;;;;;2.58;1.60;;;20.90;58.30;;;;;;5036427;28;20358;-79
2023/05/05 00:06:53;;;;;;;2.30;1.77;;;20.90;58.50;;;;;;5007606;28;20461;-79
2023/05/05 00:09:21;;;;;;;2.63;1.67;;;20.90;58.40;;;;;;5026566;28;20491;-79
2023/05/05 00:11:47;;;;;;;2.25;1.80;;;20.80;58.40;;;;;;5035048;28;20159;-80
2023/05/05 00:14:13;;;;;;;3.10;1.83;;;20.80;58.40;;;;;;5026629;28;20068;-79
2023/05/05 00:16:38;;;;;;;2.13;1.70;;;20.80;58.40;;;;;;5037960;28;20028;-79
2023/05/05 00:19:04;;;;;;;2.70;1.90;;;20.70;58.40;;;;;;5021603;28;20140;-79
2023/05/05 00:21:30;;;;;;;2.13;1.70;;;20.70;58.50;;;;;;5025005;28;20242;-79
2023/05/05 00:23:56;;;;;;;2.60;1.60;;;20.70;58.50;;;;;;5040145;28;20053;-79
2023/05/05 00:26:22;;;;;;;2.03;1.63;;;20.60;58.50;;;;;;5025240;28;20040;-79
2023/05/05 00:28:48;;;;;;;2.83;1.97;;;20.60;58.50;;;;;;5036919;28;20127;-79
2023/05/05 00:31:17;;;;;;;2.65;1.80;;;20.50;58.60;;;;;;5030594;28;20051;-79
2023/05/05 00:33:42;;;;;;;1.95;1.60;;;20.50;58.90;;;;;;5035886;28;20025;-80
2023/05/05 00:36:08;;;;;;;1.70;1.50;;;20.30;58.50;;;;;;5021798;28;20087;-80
2023/05/05 00:38:34;;;;;;;2.10;1.45;;;20.30;58.50;;;;;;5023781;28;20460;-79
2023/05/05 00:40:59;;;;;;;2.13;1.57;;;20.20;58.60;;;;;;5009086;28;20021;-79
2023/05/05 00:43:25;;;;;;;2.08;1.52;;;20.20;58.70;;;;;;5034631;28;20040;-79
2023/05/05 00:46:24;;;;;;;1.60;1.40;;;20.10;58.70;;;;;;5031610;28;20033;-79
2023/05/05 00:48:50;;;;;;;2.53;1.60;;;20.00;60.30;;;;;;5038153;28;20029;-79
2023/05/05 00:51:17;;;;;;;2.15;1.70;;;19.80;58.80;;;;;;5009713;28;20029;-80
2023/05/05 00:53:44;;;;;;;1.88;1.50;;;19.70;59.00;;;;;;5039236;28;20017;-79
2023/05/05 00:56:14;;;;;;;1.90;1.52;;;19.60;59.10;;;;;;5043543;28;20060;-79
2023/05/05 00:58:42;;;;;;;1.97;1.53;;;19.50;59.60;;;;;;5038073;28;20119;-79
2023/05/05 01:01:08;;;;;;;2.38;1.40;;;19.40;59.40;;;;;;5049326;28;20025;-79
2023/05/05 01:03:38;;;;;;;2.45;1.50;;;19.20;59.30;;;;;;5038145;28;20024;-79
2023/05/05 01:06:19;;;;;;;3.03;1.70;;;19.20;60.00;;;;;;5039483;28;20033;-79
2023/05/05 01:09:09;;;;;;;1.80;1.40;;;19.00;61.00;;;;;;5011899;28;20049;-79
2023/05/05 01:11:50;;;;;;;2.27;1.60;;;18.90;60.60;;;;;;5026963;28;20060;-79
2023/05/05 01:14:27;;;;;;;2.05;1.65;;;18.90;61.20;;;;;;5037814;28;20067;-79
2023/05/05 01:17:03;;;;;;;3.42;1.50;;;18.70;60.20;;;;;;5029508;28;20226;-79
2023/05/05 01:19:52;;;;;;;2.20;1.50;;;18.60;61.00;;;;;;5033360;28;20053;-79
2023/05/05 01:22:22;;;;;;;3.00;1.60;;;18.50;60.80;;;;;;5035750;28;20041;-79
2023/05/05 01:25:12;;;;;;;2.37;1.50;;;18.40;60.60;;;;;;5015006;28;20500;-79
2023/05/05 01:27:46;;;;;;;4.18;1.50;;;18.30;61.50;;;;;;5025218;28;20122;-79
2023/05/05 01:30:31;;;;;;;1.75;1.50;;;18.20;61.80;;;;;;5037056;28;20033;-79
2023/05/05 01:33:05;;;;;;;2.22;1.40;;;18.10;63.00;;;;;;5027520;28;20025;-79
2023/05/05 01:35:42;;;;;;;2.00;1.40;;;18.00;62.20;;;;;;5037482;28;20021;-79
2023/05/05 01:38:15;;;;;;;2.50;1.27;;;17.90;62.70;;;;;;5039058;28;20401;-79
2023/05/05 01:41:02;;;;;;;2.53;1.42;;;17.90;62.60;;;;;;4997503;28;20036;-79
2023/05/05 01:43:30;;;;;;;2.13;1.50;;;17.80;63.70;;;;;;5033532;28;20028;-79
2023/05/05 01:45:58;;;;;;;2.78;1.33;;;17.80;62.10;;;;;;5034994;28;20051;-79
2023/05/05 01:48:24;;;;;;;1.50;1.30;;;17.70;62.10;;;;;;5030899;28;20032;-79
2023/05/05 01:50:52;;;;;;;2.37;1.60;;;17.60;62.20;;;;;;5035791;28;20292;-79
2023/05/05 01:53:20;;;;;;;2.05;1.30;;;17.50;62.30;;;;;;5039762;28;20033;-79
2023/05/05 01:55:48;;;;;;;1.92;1.42;;;17.50;62.70;;;;;;5000736;28;20060;-79
2023/05/05 01:58:15;;;;;;;1.90;1.55;;;17.40;62.50;;;;;;5040055;28;20067;-79
2023/05/05 02:00:42;;;;;;;1.67;1.33;;;17.40;62.70;;;;;;5037514;28;20024;-79
2023/05/05 02:03:11;;;;;;;1.83;1.40;;;17.30;62.70;;;;;;5050334;28;20033;-79
2023/05/05 02:05:38;;;;;;;2.80;1.60;;;17.30;63.00;;;;;;5038730;28;20071;-79
2023/05/05 02:08:05;;;;;;;2.22;1.55;;;17.20;63.00;;;;;;5043934;28;20484;-79
2023/05/05 02:10:31;;;;;;;1.92;1.40;;;17.20;63.10;;;;;;5023032;28;20056;-79
2023/05/05 02:13:01;;;;;;;1.75;1.30;;;17.20;63.10;;;;;;5023325;28;20162;-79
2023/05/05 02:15:28;;;;;;;2.33;1.60;;;17.10;63.60;;;;;;5055384;28;20025;-79
2023/05/05 02:17:55;;;;;;;2.40;1.50;;;17.10;63.20;;;;;;5032333;28;20975;-79
2023/05/05 02:20:23;;;;;;;1.95;1.27;;;17.00;63.30;;;;;;5040281;28;20090;-79
2023/05/05 02:22:49;;;;;;;2.55;1.60;;;17.00;63.50;;;;;;5039896;28;20143;-79
2023/05/05 02:25:16;;;;;;;2.43;1.60;;;16.90;63.50;;;;;;5040537;28;20526;-79
2023/05/05 02:27:45;;;;;;;1.98;1.55;;;16.90;63.70;;;;;;5009096;28;20686;-79
2023/05/05 02:30:14;;;;;;;2.05;1.50;;;16.90;64.00;;;;;;5038903;28;20432;-79
2023/05/05 02:32:49;;;;;;;1.80;1.40;;;16.80;64.20;;;;;;5032060;28;20430;-79
2023/05/05 02:35:19;;;;;;;2.10;1.60;;;16.80;64.50;;;;;;5038471;28;20040;-79
2023/05/05 02:37:55;;;;;;;2.07;1.40;;;16.70;64.50;;;;;;5038523;28;20375;-79
2023/05/05 02:40:25;;;;;;;2.40;1.40;;;16.70;65.00;;;;;;5037067;28;20025;-79
2023/05/05 02:42:53;;;;;;;2.10;1.40;;;16.60;64.70;;;;;;5012582;28;20713;-79
2023/05/05 02:45:21;;;;;;;3.00;1.50;;;16.60;64.50;;;;;;5037902;28;20013;-79
2023/05/05 02:47:46;;;;;;;2.00;1.30;;;16.50;64.50;;;;;;5060521;28;20717;-79
2023/05/05 02:50:14;;;;;;;1.70;1.27;;;16.50;64.70;;;;;;5039517;28;20013;-79
2023/05/05 02:52:40;;;;;;;3.25;1.52;;;16.40;64.70;;;;;;5035597;28;20024;-79
2023/05/05 02:55:07;;;;;;;2.20;1.60;;;16.40;64.90;;;;;;5040924;28;20029;-79
2023/05/05 02:57:51;;;;;;;2.25;1.45;;;16.30;64.90;;;;;;5035132;28;20032;-79
2023/05/05 03:00:35;;;;;;;2.20;1.50;;;16.30;65.00;;;;;;5010258;28;20041;-79
2023/05/05 03:03:31;;;;;;;2.77;1.50;;;16.30;66.80;;;;;;5035218;28;20095;-79
2023/05/05 03:06:07;;;;;;;1.75;1.30;;;16.20;67.30;;;;;;5031894;28;20514;-79
2023/05/05 03:08:43;;;;;;;2.13;1.50;;;16.20;66.40;;;;;;5020242;28;20513;-79
2023/05/05 03:11:22;;;;;;;1.42;1.20;;;16.10;66.60;;;;;;5034606;28;20739;-79
2023/05/05 03:13:51;;;;;;;1.92;1.40;;;16.00;66.40;;;;;;5008080;28;27412;-79
2023/05/05 03:16:17;;;;;;;1.93;1.27;;;16.00;66.70;;;;;;5033990;28;20159;-79
2023/05/05 03:18:45;;;;;;;1.92;1.48;;;15.90;65.60;;;;;;5031309;28;20742;-79
2023/05/05 03:21:12;;;;;;;2.03;1.42;;;15.90;66.10;;;;;;5029355;28;20025;-79
2023/05/05 03:23:38;;;;;;;1.80;1.42;;;15.80;66.00;;;;;;5038112;28;20029;-79
2023/05/05 03:26:03;;;;;;;2.23;1.60;;;15.70;65.90;;;;;;5033982;28;20066;-79
2023/05/05 03:28:29;;;;;;;2.20;1.40;;;15.70;66.10;;;;;;5065452;28;20301;-79
2023/05/05 03:30:55;;;;;;;1.60;1.40;;;15.70;66.30;;;;;;5009673;28;20045;-79
2023/05/05 03:33:20;;;;;;;2.40;1.35;;;15.60;66.40;;;;;;5039518;28;20328;-79
2023/05/05 03:35:46;;;;;;;1.80;1.40;;;15.60;66.60;;;;;;5024810;28;20654;-79
2023/05/05 03:38:12;;;;;;;2.13;1.50;;;15.60;66.70;;;;;;5033437;28;20060;-79
2023/05/05 03:40:38;;;;;;;2.72;1.50;;;15.50;66.80;;;;;;5049630;28;20088;-79
2023/05/05 03:43:03;;;;;;;2.03;1.60;;;15.50;66.90;;;;;;5030862;28;20025;-79
2023/05/05 03:45:29;;;;;;;2.20;1.60;;;15.50;67.10;;;;;;5023490;28;20018;-79
2023/05/05 03:47:55;;;;;;;2.87;1.60;;;15.50;67.20;;;;;;5048976;28;20029;-79
2023/05/05 03:50:21;;;;;;;2.30;1.48;;;15.50;67.40;;;;;;5020215;28;21187;-79
2023/05/05 03:52:46;;;;;;;2.30;1.70;;;15.40;67.40;;;;;;5034863;28;20725;-79
2023/05/05 03:55:12;;;;;;;2.20;1.60;;;15.40;67.50;;;;;;5049355;28;20098;-79
2023/05/05 03:57:38;;;;;;;2.47;1.65;;;15.40;67.70;;;;;;5050361;28;20025;-79
2023/05/05 04:00:05;;;;;;;2.40;1.63;;;15.40;67.80;;;;;;5047884;28;20022;-79
2023/05/05 04:02:31;;;;;;;2.25;1.75;;;15.30;67.90;;;;;;5025921;28;20098;-79
2023/05/05 04:04:57;;;;;;;2.47;1.75;;;15.30;67.80;;;;;;5031844;28;20052;-79
2023/05/05 04:07:22;;;;;;;2.33;1.60;;;15.30;67.90;;;;;;5048158;28;20111;-79
2023/05/05 04:09:48;;;;;;;2.13;1.50;;;15.20;68.00;;;;;;5035732;28;20028;-79
2023/05/05 04:12:14;;;;;;;2.13;1.50;;;15.20;68.00;;;;;;5034543;28;20029;-79
2023/05/05 04:14:40;;;;;;;2.13;1.53;;;15.20;68.10;;;;;;5035002;28;20027;-79
2023/05/05 04:17:06;;;;;;;3.00;1.60;;;15.20;69.10;;;;;;5011352;28;20307;-79
2023/05/05 04:19:32;;;;;;;2.50;1.83;;;15.20;68.30;;;;;;5034960;28;20029;-79
2023/05/05 04:21:59;;;;;;;2.40;1.60;;;15.10;68.30;;;;;;5028576;28;20100;-79
2023/05/05 04:24:25;;;;;;;2.20;1.60;;;15.10;68.40;;;;;;5038879;28;20057;-79
2023/05/05 04:26:51;;;;;;;1.90;1.58;;;15.10;68.50;;;;;;5038561;28;20028;-79
2023/05/05 04:29:17;;;;;;;2.83;1.70;;;15.10;68.50;;;;;;5034125;28;20029;-79
2023/05/05 04:31:43;;;;;;;3.05;1.77;;;15.00;68.50;;;;;;5025626;28;20836;-79
2023/05/05 04:34:09;;;;;;;3.20;1.70;;;15.00;68.50;;;;;;5038885;28;20393;-79
2023/05/05 04:36:35;;;;;;;2.42;1.73;;;15.00;68.60;;;;;;5043063;28;20122;-79
2023/05/05 04:39:01;;;;;;;2.33;1.60;;;15.00;68.70;;;;;;5038386;28;20111;-79
2023/05/05 04:41:27;;;;;;;2.20;1.80;;;14.90;68.80;;;;;;5030743;28;20048;-79
2023/05/05 04:43:54;;;;;;;2.90;1.80;;;14.90;68.90;;;;;;5037579;28;20079;-79
2023/05/05 04:46:20;;;;;;;2.58;1.83;;;14.90;68.90;;;;;;5032558;28;20029;-79
2023/05/05 04:48:46;;;;;;;2.97;1.88;;;14.90;69.10;;;;;;5012842;28;20078;-79
2023/05/05 04:51:12;;;;;;;2.80;1.70;;;14.90;69.10;;;;;;5053556;28;20033;-79
2023/05/05 04:53:38;;;;;;;2.40;1.77;;;14.80;69.10;;;;;;5029742;28;20289;-79
2023/05/05 04:56:04;;;;;;;2.88;1.65;;;14.80;69.30;;;;;;5040525;28;20021;-79
2023/05/05 04:58:30;;;;;;;2.67;1.80;;;14.80;69.50;;;;;;5049314;28;20769;-79
2023/05/05 05:00:56;;;;;;;2.08;1.58;;;14.80;69.60;;;;;;5035155;28;20371;-79
2023/05/05 05:03:22;;;;;;;2.65;1.60;;;14.80;69.80;;;;;;4972586;28;20083;-79
2023/05/05 05:05:48;;;;;;;3.00;1.75;;;14.80;70.00;;;;;;5031640;28;20036;-79
2023/05/05 05:08:17;;;;;;;2.23;1.63;;;14.70;70.00;;;;;;5018189;28;20450;-79
2023/05/05 05:10:43;;;;;;;2.53;1.75;;;14.80;70.80;;;;;;5033664;28;20024;-79
2023/05/05 05:13:10;;;;;;;3.00;1.92;;;14.80;70.60;;;;;;5052990;28;20104;-79
2023/05/05 05:15:38;;;;;;;3.13;1.88;;;14.80;70.80;;;;;;5031234;28;20102;-79
2023/05/05 05:18:04;;;;;;;2.20;1.70;;;14.80;70.90;;;;;;5021042;28;20917;-79
2023/05/05 05:20:30;;;;;;;2.10;1.70;;;14.90;71.20;;;;;;5006560;28;20478;-79
2023/05/05 05:22:56;;;;;;;2.85;1.83;;;14.90;71.40;;;;;;5020747;28;20570;-79
2023/05/05 05:25:22;;;;;;;2.78;2.00;;;15.00;71.60;;;;;;5039960;28;20061;-79
2023/05/05 05:27:48;;;;;;;2.70;2.00;;;15.10;71.80;;;;;;5027982;28;20025;-79
2023/05/05 05:30:14;;;;;;;2.78;1.92;;;15.10;71.90;;;;;;5039135;28;20036;-79
2023/05/05 05:32:40;;;;;;;3.50;1.92;;;15.20;72.10;;;;;;5043932;28;20048;-79
2023/05/05 05:35:06;;;;;;;3.90;2.22;;;15.30;72.20;;;;;;5009464;28;20033;-78
2023/05/05 05:37:33;;;;;;;3.33;2.03;;;15.40;72.50;;;;;;5015355;28;20029;-79
2023/05/05 05:39:59;;;;;;;3.85;1.95;;;15.50;72.70;;;;;;5055522;28;20308;-79
2023/05/05 05:42:25;;;;;;;3.13;2.05;;;15.50;72.60;;;;;;5054014;28;20028;-79
2023/05/05 05:44:50;;;;;;;3.90;2.47;;;15.60;72.70;;;;;;5036398;28;20013;-79
2023/05/05 05:47:16;;;;;;;3.28;2.05;;;15.60;72.70;;;;;;5043405;28;20029;-79
2023/05/05 05:49:42;;;;;;;3.40;2.30;;;15.70;73.00;;;;;;4999055;28;20670;-79
2023/05/05 05:52:08;;;;;;;3.42;2.40;;;15.80;72.80;;;;;;5037979;28;20025;-79
2023/05/05 05:54:34;;;;;;;4.93;2.30;;;15.90;73.30;;;;;;5016621;28;20606;-79
2023/05/05 05:57:01;;;;;;;3.88;2.28;;;16.00;73.20;;;;;;5039880;28;20021;-79
2023/05/05 05:59:27;;;;;;;3.90;2.47;;;16.10;73.60;;;;;;5018804;28;20037;-78
2023/05/05 06:01:54;;;;;;;6.05;2.80;;;16.20;73.70;;;;;;5040566;28;20045;-79
2023/05/05 06:04:20;;;;;;;4.40;2.77;;;16.30;74.40;;;;;;4989243;28;21829;-79
2023/05/05 06:06:46;;;;;;;4.55;2.90;;;16.40;74.20;;;;;;5038780;28;20370;-78
2023/05/05 06:09:11;;;;;;;3.95;2.90;;;16.50;74.40;;;;;;5021714;28;20033;-79
2023/05/05 06:11:37;;;;;;;3.27;2.30;;;16.60;74.40;;;;;;5032641;28;20056;-79
2023/05/05 06:14:03;;;;;;;4.50;2.72;;;16.70;74.20;;;;;;5037001;28;20292;-79
2023/05/05 06:16:28;;;;;;;3.80;2.57;;;16.80;74.40;;;;;;5038044;28;20464;-79
2023/05/05 06:18:54;;;;;;;4.10;2.47;;;16.90;74.30;;;;;;5037188;28;20029;-79
2023/05/05 06:21:20;;;;;;;5.57;2.90;;;17.00;74.30;;;;;;5004654;28;20124;-79
2023/05/05 06:23:46;;;;;;;4.17;2.73;;;17.10;75.40;;;;;;5032221;28;20029;-79
2023/05/05 06:26:12;;;;;;;3.85;2.50;;;17.20;74.60;;;;;;5017949;28;20025;-79
2023/05/05 06:28:38;;;;;;;4.00;2.78;;;17.20;74.80;;;;;;5038903;28;20029;-80
2023/05/05 06:31:04;;;;;;;4.57;2.60;;;17.30;75.20;;;;;;5052268;28;20083;-79
2023/05/05 06:33:29;;;;;;;4.00;2.70;;;17.40;75.30;;;;;;5034001;28;20013;-79
2023/05/05 06:35:55;;;;;;;4.43;2.80;;;17.60;75.40;;;;;;5006329;28;20074;-80
2023/05/05 06:38:21;;;;;;;4.60;2.67;;;17.80;75.60;;;;;;5029414;28;20227;-79
2023/05/05 06:40:50;;;;;;;3.83;2.55;;;17.80;75.40;;;;;;5019331;28;20471;-79
2023/05/05 06:43:16;;;;;;;3.80;2.75;;;17.90;75.00;;;;;;5023721;28;20029;-79
2023/05/05 06:45:42;;;;;;;3.70;2.47;;;18.10;74.90;;;;;;5037680;28;20021;-79
2023/05/05 06:48:08;;;;;;;4.00;2.40;;;18.10;74.40;;;;;;5036437;28;20021;-79
2023/05/05 06:50:34;;;;;;;5.18;2.90;;;18.20;74.40;;;;;;5007774;28;20559;-79
2023/05/05 06:53:00;;;;;;;4.47;2.40;;;18.20;74.40;;;;;;5034062;28;20090;-79
2023/05/05 06:55:25;;;;;;;4.07;2.33;;;18.20;74.70;;;;;;5017233;28;20159;-79
2023/05/05 06:57:51;;;;;;;4.53;2.50;;;18.30;75.00;;;;;;5022418;28;20028;-79
2023/05/05 07:00:18;;;;;;;5.35;2.70;;;18.40;75.40;;;;;;5032116;28;20082;-80
2023/05/05 07:02:44;;;;;;;3.73;2.33;;;18.40;75.60;;;;;;5035683;28;20107;-79
2023/05/05 07:05:09;;;;;;;3.83;2.53;;;18.60;75.70;;;;;;4982853;28;20082;-80
2023/05/05 07:07:36;;;;;;;4.25;2.50;;;18.70;75.80;;;;;;5040788;28;20145;-79
2023/05/05 07:10:02;;;;;;;3.70;2.50;;;18.80;75.90;;;;;;5033133;28;20021;-79
2023/05/05 07:12:31;;;;;;;4.45;2.58;;;18.90;76.10;;;;;;5018840;28;20071;-79
2023/05/05 07:14:57;;;;;;;6.00;2.67;;;19.10;76.30;;;;;;5036989;28;20025;-79
2023/05/05 07:17:23;;;;;;;4.55;2.70;;;19.30;76.20;;;;;;5011937;28;20138;-80
2023/05/05 07:19:50;;;;;;;4.60;2.67;;;19.40;76.20;;;;;;5041290;28;20087;-79
2023/05/05 07:22:16;;;;;;;4.05;2.75;;;19.50;76.00;;;;;;5005002;28;20024;-79
2023/05/05 07:24:41;;;;;;;3.60;2.20;;;19.70;76.00;;;;;;5036438;28;20382;-79
2023/05/05 07:27:07;;;;;;;3.42;2.20;;;19.80;75.70;;;;;;5031605;28;20558;-77
2023/05/05 07:29:33;;;;;;;3.88;2.30;;;20.00;75.40;;;;;;5020391;28;20494;-79
2023/05/05 07:31:59;;;;;;;4.87;2.50;;;20.10;75.30;;;;;;5017114;28;20029;-80
2023/05/05 07:34:24;;;;;;;3.90;2.20;;;20.20;75.10;;;;;;5026341;28;20033;-79
2023/05/05 07:36:50;;;;;;;4.43;2.15;;;20.30;75.00;;;;;;5000680;28;20465;-79
2023/05/05 07:39:18;;;;;;;2.87;1.80;;;20.40;75.10;;;;;;5035607;28;20095;-79
2023/05/05 07:45:06;;;;;;;2.95;1.70;;;20.60;74.40;;;;;;5020609;28;20044;-80
2023/05/05 07:47:32;;;;;;;2.70;1.80;;;20.70;74.00;;;;;;5045829;28;20044;-80
2023/05/05 07:49:58;;;;;;;3.03;1.80;;;20.80;73.90;;;;;;5034709;28;20029;-79
2023/05/05 07:52:24;;;;;;;2.83;1.67;;;20.90;74.10;;;;;;4999229;28;20030;-80
2023/05/05 07:54:50;;;;;;;2.65;1.92;;;20.90;74.10;;;;;;5024878;28;20099;-79
2023/05/05 07:57:15;;;;;;;3.87;2.03;;;21.00;74.10;;;;;;5026415;28;20054;-80
2023/05/05 07:59:44;;;;;;;2.65;1.50;;;21.10;73.80;;;;;;5034018;28;20033;-80
2023/05/05 08:02:11;;;;;;;3.17;1.60;;;21.20;73.30;;;;;;5033531;28;20036;-82
2023/05/05 08:04:38;;;;;;;3.00;1.80;;;21.20;72.80;;;;;;5030120;28;20044;-79
2023/05/05 08:07:04;;;;;;;3.23;1.63;;;21.20;72.20;;;;;;5018824;28;20028;-79
2023/05/05 08:09:30;;;;;;;3.83;1.70;;;21.20;71.90;;;;;;5023471;28;20063;-77
2023/05/05 08:11:56;;;;;;;3.47;1.90;;;21.10;71.70;;;;;;5027609;28;20029;-79
2023/05/05 08:14:21;;;;;;;3.23;1.80;;;21.10;71.60;;;;;;5016173;28;20064;-79
2023/05/05 08:16:47;;;;;;;3.70;1.80;;;21.00;71.50;;;;;;5051855;28;20021;-79
2023/05/05 08:19:13;;;;;;;2.33;1.48;;;21.00;71.40;;;;;;5028989;28;20029;-80
2023/05/05 08:21:38;;;;;;;2.33;1.50;;;20.90;71.40;;;;;;5033564;28;20104;-79
2023/05/05 08:24:04;;;;;;;2.33;1.40;;;20.80;71.40;;;;;;5003213;28;20472;-79
2023/05/05 08:26:30;;;;;;;1.93;1.47;;;20.80;71.60;;;;;;5029796;28;20345;-79
2023/05/05 08:28:59;;;;;;;2.03;1.45;;;20.80;71.70;;;;;;5034371;28;20077;-81
2023/05/05 08:31:27;;;;;;;2.47;1.30;;;20.70;71.70;;;;;;5001342;28;20356;-79
2023/05/05 08:33:53;;;;;;;3.03;1.55;;;20.70;71.80;;;;;;5036834;28;20033;-79
2023/05/05 08:36:19;;;;;;;2.47;1.20;;;20.70;71.90;;;;;;5031696;28;20479;-79
2023/05/05 08:38:45;;;;;;;2.28;1.38;;;20.70;72.20;;;;;;4993682;28;20033;-80
2023/05/05 08:41:13;;;;;;;3.38;1.38;;;20.70;72.30;;;;;;5028495;28;20108;-79
2023/05/05 08:43:39;;;;;;;3.30;1.50;;;20.80;72.60;;;;;;5019774;28;20474;-79
2023/05/05 08:46:09;;;;;;;2.65;1.50;;;20.80;72.60;;;;;;5015217;28;22960;-79
2023/05/05 08:48:37;;;;;;;3.13;1.40;;;20.90;72.70;;;;;;5036334;28;20017;-79
2023/05/05 08:51:05;;;;;;;2.17;1.43;;;21.00;73.10;;;;;;5032884;28;20482;-79
2023/05/05 08:53:45;;;;;;;2.65;1.38;;;21.10;73.00;;;;;;5009272;28;20087;-80
2023/05/05 08:56:13;;;;;;;2.53;1.40;;;21.20;73.10;;;;;;5046583;28;20466;-79
2023/05/05 08:58:40;;;;;;;1.92;1.40;;;21.30;72.70;;;;;;5024867;28;20374;-80
2023/05/05 09:01:06;;;;;;;2.60;1.40;;;21.40;72.00;;;;;;5038739;28;20266;-79
2023/05/05 09:03:34;;;;;;;2.70;1.60;;;21.40;71.30;;;;;;5021073;28;20079;-79
2023/05/05 09:06:00;;;;;;;2.58;1.30;;;21.40;71.10;;;;;;5034024;28;20067;-80
2023/05/05 09:08:27;;;;;;;3.20;1.23;;;21.30;70.70;;;;;;5026317;28;20029;-79
2023/05/05 09:10:54;;;;;;;2.90;1.60;;;21.30;71.10;;;;;;5015255;28;20079;-80
2023/05/05 09:13:20;;;;;;;2.30;1.50;;;21.20;70.40;;;;;;5025218;28;20119;-79
2023/05/05 09:15:45;;;;;;;1.83;1.20;;;21.20;70.40;;;;;;5043830;28;20059;-79
2023/05/05 09:18:11;;;;;;;1.88;1.30;;;21.10;70.30;;;;;;5018881;28;20231;-79
2023/05/05 09:20:38;;;;;;;2.17;1.33;;;21.00;70.30;;;;;;5038663;28;20254;-79
2023/05/05 09:23:18;;;;;;;3.47;1.50;;;20.90;70.60;;;;;;5031047;28;20096;-80
2023/05/05 09:25:46;;;;;;;2.25;1.35;;;20.90;72.40;;;;;;5012785;28;20083;-83
2023/05/05 09:28:16;;;;;;;2.92;1.35;;;20.70;71.30;;;;;;5026704;28;20123;-81
2023/05/05 09:30:44;;;;;;;2.35;1.50;;;20.70;71.90;;;;;;5026972;28;20131;-80
2023/05/05 09:33:10;;;;;;;2.47;1.30;;;20.50;72.00;;;;;;5033428;28;20230;-82
2023/05/05 09:35:50;;;;;;;1.92;1.20;;;20.40;71.90;;;;;;5021235;28;20025;-81
2023/05/05 09:38:17;;;;;;;2.58;1.20;;;20.20;73.10;;;;;;5034830;28;20218;-83
2023/05/05 09:40:47;;;;;;;2.75;1.15;;;20.10;72.30;;;;;;5013296;28;20025;-82
2023/05/05 09:43:17;;;;;;;2.83;1.30;;;20.00;73.40;;;;;;5029037;28;20371;-82
2023/05/05 09:45:44;;;;;;;2.10;1.17;;;19.90;73.30;;;;;;5037986;28;20067;-84
2023/05/05 09:48:26;;;;;;;3.13;1.20;;;19.70;74.00;;;;;;5034446;28;20227;-82
2023/05/05 09:50:53;;;;;;;1.88;1.20;;;19.70;76.50;;;;;;5018013;28;20026;-83
2023/05/05 09:53:19;;;;;;;2.15;1.35;;;19.60;76.00;;;;;;5050487;28;20142;-82
2023/05/05 09:55:59;;;;;;;2.10;1.40;;;19.70;76.70;;;;;;5010830;28;20025;-83
2023/05/05 09:58:29;;;;;;;1.90;1.30;;;19.70;78.80;;;;;;5033906;28;20072;-82
2023/05/05 10:00:56;;;;;;;3.08;1.63;;;19.70;78.50;;;;;;5041942;28;20034;-83
2023/05/05 10:03:23;;;;;;;3.85;1.50;;;19.70;78.60;;;;;;5062532;28;20021;-83
2023/05/05 10:05:57;;;;;;;2.95;1.80;;;19.70;79.30;;;;;;5028477;28;20036;-82
2023/05/05 10:08:25;;;;;;;3.35;1.75;;;19.80;80.70;;;;;;5040011;28;20121;-83
2023/05/05 10:11:06;;;;;;;3.70;1.70;;;19.90;81.00;;;;;;5011549;28;20021;-83
2023/05/05 10:13:36;;;;;;;2.67;1.70;;;20.00;82.30;;;;;;5040113;28;20025;-82
2023/05/05 10:16:03;;;;;;;3.45;1.98;;;20.20;83.80;;;;;;5028757;28;20311;-84
2023/05/05 10:18:31;;;;;;;3.22;1.70;;;20.40;83.00;;;;;;5019951;28;20111;-82
2023/05/05 10:21:00;;;;;;;2.58;1.80;;;20.60;83.10;;;;;;5025754;28;20017;-81
2023/05/05 10:23:40;;;;;;;4.73;2.10;;;20.70;83.40;;;;;;5034542;28;20052;-80
2023/05/05 10:26:06;;;;;;;4.32;2.13;;;20.90;84.40;;;;;;5013972;28;20132;-81
2023/05/05 10:28:40;;;;;;;3.50;2.03;;;21.00;84.20;;;;;;5037009;28;20086;-81
2023/05/05 10:31:15;;;;;;;5.95;2.30;;;21.20;84.40;;;;;;5028745;28;20053;-81
2023/05/05 10:33:52;;;;;;;3.70;2.00;;;21.40;84.70;;;;;;5047272;28;20362;-81
2023/05/05 10:36:19;;;;;;;5.73;2.00;;;21.60;85.30;;;;;;5018771;28;20029;-81
2023/05/05 10:38:45;;;;;;;3.10;2.08;;;21.80;86.40;;;;;;5023734;28;20036;-81
2023/05/05 10:41:13;;;;;;;3.40;2.00;;;22.10;87.80;;;;;;5011674;28;20041;-80
2023/05/05 10:43:39;;;;;;;4.28;2.42;;;22.50;89.60;;;;;;5031287;28;20060;-81
2023/05/05 10:46:06;;;;;;;3.00;2.38;;;22.90;90.00;;;;;;5048362;28;20116;-80
2023/05/05 10:48:38;;;;;;;3.30;2.20;;;23.40;89.70;;;;;;5037291;28;20028;-81
2023/05/05 10:51:26;;;;;;;2.97;2.00;;;23.80;88.30;;;;;;5044051;28;20018;-78
2023/05/05 10:54:05;;;;;;;2.33;1.73;;;24.20;81.60;;;;;;5021890;28;20246;-79
2023/05/05 10:56:33;;;;;;;3.42;1.80;;;24.50;83.10;;;;;;4991554;28;20052;-81
2023/05/05 10:58:59;;;;;;;2.85;1.80;;;24.80;83.80;;;;;;5035862;28;20747;-81
2023/05/05 11:01:33;;;;;;;2.00;1.70;;;24.90;82.00;;;;;;5028876;28;20025;-79
2023/05/05 11:04:18;;;;;;;2.60;1.65;;;24.90;79.00;;;;;;5037577;28;20228;-78
2023/05/05 11:07:08;;;;;;;2.78;1.75;;;24.90;75.10;;;;;;5023737;28;20029;-80
2023/05/05 11:09:37;;;;;;;3.00;1.60;;;24.70;74.50;;;;;;5021892;28;20128;-80
2023/05/05 11:12:05;;;;;;;3.08;1.67;;;24.40;75.90;;;;;;5011469;28;20192;-78
2023/05/05 11:14:31;;;;;;;3.10;1.57;;;24.20;75.40;;;;;;5040989;28;20052;-81
2023/05/05 11:16:56;;;;;;;2.63;1.30;;;23.90;74.50;;;;;;5034990;28;20644;-80
2023/05/05 11:19:41;;;;;;;2.80;1.50;;;23.60;74.40;;;;;;5037368;28;20046;-78
2023/05/05 11:22:07;;;;;;;2.37;1.30;;;23.40;73.50;;;;;;5049148;28;20041;-79
2023/05/05 11:24:35;;;;;;;2.63;1.20;;;23.10;74.60;;;;;;5021744;28;20075;-81
2023/05/05 11:27:02;;;;;;;2.72;1.30;;;22.90;74.90;;;;;;5009572;28;20103;-80
2023/05/05 11:30:03;;;;;;;2.22;1.27;;;22.70;75.10;;;;;;5033519;28;20024;-80
2023/05/05 11:32:29;;;;;;;2.03;1.20;;;22.50;74.70;;;;;;5029048;28;20041;-80
2023/05/05 11:34:55;;;;;;;2.30;1.40;;;22.30;75.30;;;;;;5037361;28;20608;-79
2023/05/05 11:37:26;;;;;;;3.10;1.60;;;22.20;75.00;;;;;;5028003;28;20043;-81
2023/05/05 11:40:06;;;;;;;1.83;1.38;;;22.00;74.50;;;;;;5019565;28;20102;-80
2023/05/05 11:42:32;;;;;;;2.13;1.37;;;21.90;74.80;;;;;;5005690;28;20033;-80
2023/05/05 11:44:58;;;;;;;3.20;1.40;;;21.70;75.70;;;;;;5037818;28;20709;-80
2023/05/05 11:47:25;;;;;;;3.35;1.60;;;21.60;76.00;;;;;;5028805;28;20021;-79
2023/05/05 11:49:51;;;;;;;2.78;1.50;;;21.60;76.30;;;;;;5030232;28;20249;-80
2023/05/05 11:52:17;;;;;;;2.17;1.30;;;21.60;76.80;;;;;;5020058;28;20024;-79
2023/05/05 11:54:47;;;;;;;3.40;1.50;;;21.60;76.80;;;;;;5018839;28;20032;-81
2023/05/05 11:57:20;;;;;;;3.55;1.33;;;21.70;76.90;;;;;;5011994;28;20367;-80
2023/05/05 11:59:53;;;;;;;3.65;1.40;;;21.80;77.40;;;;;;5034155;28;20060;-80
2023/05/05 12:02:20;;;;;;;2.78;1.40;;;21.90;77.40;;;;;;5027951;28;20449;-80
2023/05/05 12:04:47;;;;;;;2.47;1.20;;;22.00;77.60;;;;;;5030267;28;20464;-81
2023/05/05 12:07:18;;;;;;;2.38;1.50;;;22.20;77.80;;;;;;5022784;28;20017;-78
2023/05/05 12:09:45;;;;;;;3.53;1.25;;;22.30;77.00;;;;;;4999235;28;20481;-80
2023/05/05 12:12:11;;;;;;;2.60;1.45;;;22.30;76.20;;;;;;5008693;28;20033;-81
2023/05/05 12:14:51;;;;;;;2.70;1.20;;;22.40;76.40;;;;;;5034564;28;20107;-82
2023/05/05 12:17:21;;;;;;;3.20;1.37;;;22.40;75.00;;;;;;5034778;28;20413;-79
2023/05/05 12:19:54;;;;;;;1.88;1.35;;;22.50;75.90;;;;;;5026880;28;20348;-79
2023/05/05 12:22:23;;;;;;;2.80;1.40;;;22.50;75.80;;;;;;5024750;28;20635;-80
2023/05/05 12:25:07;;;;;;;2.28;1.38;;;22.60;76.20;;;;;;5053401;28;20565;-81
2023/05/05 12:27:34;;;;;;;2.80;1.30;;;22.70;74.70;;;;;;4999753;28;20688;-80
2023/05/05 12:30:11;;;;;;;1.47;1.07;;;22.80;76.20;;;;;;5033868;28;20036;-80
2023/05/05 12:32:37;;;;;;;2.40;1.10;;;22.90;75.00;;;;;;5031762;28;20426;-80
2023/05/05 12:35:05;;;;;;;2.60;1.30;;;22.90;76.10;;;;;;5028632;28;20020;-80
2023/05/05 12:37:31;;;;;;;1.83;1.17;;;23.00;76.00;;;;;;5033865;28;20021;-78
2023/05/05 12:39:57;;;;;;;2.83;1.27;;;23.10;75.90;;;;;;5040674;28;20021;-80
2023/05/05 12:42:23;;;;;;;2.15;1.20;;;23.10;75.00;;;;;;4989034;28;20905;-80
2023/05/05 12:44:49;;;;;;;2.33;1.40;;;23.10;74.80;;;;;;5031842;28;20083;-79
2023/05/05 12:47:31;;;;;;;2.40;1.23;;;23.10;74.40;;;;;;5033737;28;20078;-81
2023/05/05 12:49:58;;;;;;;2.50;1.40;;;23.10;73.60;;;;;;5028840;28;20037;-81
2023/05/05 12:52:40;;;;;;;2.28;1.20;;;23.10;74.50;;;;;;5030711;28;20056;-80
2023/05/05 12:55:08;;;;;;;1.75;1.10;;;23.00;73.30;;;;;;5024481;28;20154;-81
2023/05/05 12:57:33;;;;;;;1.60;0.90;;;23.00;74.10;;;;;;5022922;28;20508;-79
2023/05/05 13:00:12;;;;;;;2.55;0.90;;;22.90;73.50;;;;;;5008033;28;20032;-80